Time;durP1;ratioP1;P1;durP2;ratioP2;P2;SDS_P1;SDS_P2;PMS_P1;PMS_P2;Temp;Humidity;BMP_temperature;BMP_pressure;BME280_temperature;BME280_humidity;BME280_pressure;Samples;Min_cycle;Max_cycle;Signal;HPM_P1;HPM_P2
2022/11/16 00:01:31;;;;;;;12.93;8.35;;;12.10;99.90;;;;;;5072651;28;20024;-68
2022/11/16 00:03:58;;;;;;;14.70;8.60;;;12.00;99.90;;;;;;5073153;28;20503;-69
2022/11/16 00:06:25;;;;;;;15.30;8.77;;;12.00;99.90;;;;;;5073131;28;20024;-68
2022/11/16 00:11:40;;;;;;;14.50;8.75;;;12.00;99.90;;;;;;5073596;28;20035;-69
2022/11/16 00:14:06;;;;;;;14.13;8.43;;;12.00;99.90;;;;;;5071458;28;20401;-69
2022/11/16 00:16:32;;;;;;;14.52;8.95;;;12.00;99.90;;;;;;5072441;28;20041;-69
2022/11/16 00:19:02;;;;;;;12.40;8.13;;;12.00;99.90;;;;;;5073052;28;20021;-69
2022/11/16 00:21:28;;;;;;;15.75;8.65;;;12.10;99.90;;;;;;5072939;28;20021;-66
2022/11/16 00:23:54;;;;;;;16.08;9.52;;;12.10;99.90;;;;;;5070799;28;20437;-69
2022/11/16 00:26:20;;;;;;;13.52;8.43;;;12.10;99.90;;;;;;5072790;28;20049;-70
2022/11/16 00:28:47;;;;;;;12.60;8.18;;;12.10;99.90;;;;;;5073076;28;20024;-67
2022/11/16 00:31:12;;;;;;;14.35;8.15;;;12.10;99.90;;;;;;5071010;28;20078;-69
2022/11/16 00:33:38;;;;;;;14.50;8.25;;;12.10;99.90;;;;;;5072489;28;20040;-69
2022/11/16 00:36:05;;;;;;;13.82;8.70;;;12.10;99.90;;;;;;5072637;28;20364;-70
2022/11/16 00:38:32;;;;;;;15.48;8.35;;;12.10;99.90;;;;;;5072038;28;20396;-69
2022/11/16 00:40:58;;;;;;;14.10;8.82;;;12.10;99.90;;;;;;5072694;28;20028;-69
2022/11/16 00:43:25;;;;;;;13.48;8.23;;;12.10;99.90;;;;;;5071902;28;20028;-69
2022/11/16 00:45:51;;;;;;;13.68;8.43;;;12.10;99.90;;;;;;5071287;28;20067;-70
2022/11/16 00:48:16;;;;;;;12.68;7.80;;;12.10;99.90;;;;;;5071680;28;20059;-64
2022/11/16 00:50:44;;;;;;;14.55;8.45;;;12.10;99.90;;;;;;5089897;28;20020;-70
2022/11/16 00:53:13;;;;;;;13.40;8.07;;;12.10;99.90;;;;;;5090815;28;20043;-69
2022/11/16 00:55:38;;;;;;;13.05;7.32;;;12.10;99.90;;;;;;5092551;28;20035;-67
2022/11/16 00:58:04;;;;;;;14.07;8.50;;;12.20;99.90;;;;;;5091788;28;20384;-69
2022/11/16 01:00:30;;;;;;;15.15;8.23;;;12.20;99.90;;;;;;5092004;28;20058;-70
2022/11/16 01:02:55;;;;;;;15.95;9.60;;;12.20;99.90;;;;;;5092044;28;20023;-69
2022/11/16 01:05:22;;;;;;;15.63;9.80;;;12.10;99.90;;;;;;5091558;28;20032;-69
2022/11/16 01:07:47;;;;;;;13.75;8.55;;;12.20;99.90;;;;;;5092093;28;20024;-70
2022/11/16 01:10:15;;;;;;;13.88;9.32;;;12.10;99.90;;;;;;5090961;28;20030;-69
2022/11/16 01:12:41;;;;;;;15.23;9.40;;;12.10;99.90;;;;;;5090268;28;20031;-69
2022/11/16 01:15:08;;;;;;;16.38;9.45;;;12.10;99.90;;;;;;5090707;28;20042;-68
2022/11/16 01:17:34;;;;;;;15.27;9.93;;;12.10;99.90;;;;;;5091945;28;20020;-69
2022/11/16 01:20:00;;;;;;;15.48;9.73;;;12.10;99.90;;;;;;5089901;28;20543;-68
2022/11/16 01:22:25;;;;;;;14.73;9.25;;;12.10;99.90;;;;;;5092106;28;20063;-69
2022/11/16 01:24:51;;;;;;;14.45;8.20;;;12.10;99.90;;;;;;5092295;28;20024;-69
2022/11/16 01:27:17;;;;;;;14.05;8.60;;;12.10;99.90;;;;;;5091178;28;20040;-69
2022/11/16 01:29:42;;;;;;;11.60;7.97;;;12.10;99.90;;;;;;5091965;28;20024;-67
2022/11/16 01:32:08;;;;;;;13.23;7.68;;;12.10;99.90;;;;;;5091769;28;20024;-69
2022/11/16 01:34:34;;;;;;;12.85;7.85;;;12.10;99.90;;;;;;5091482;28;20032;-68
2022/11/16 01:37:00;;;;;;;14.43;8.43;;;12.10;99.90;;;;;;5092056;28;20434;-68
2022/11/16 01:39:25;;;;;;;16.60;9.30;;;12.10;99.90;;;;;;5090581;28;20012;-67
2022/11/16 01:41:51;;;;;;;15.68;9.32;;;12.10;99.90;;;;;;5091339;28;20099;-65
2022/11/16 01:44:32;;;;;;;14.85;9.32;;;12.10;99.90;;;;;;5091855;28;20073;-68
2022/11/16 01:47:04;;;;;;;14.88;9.18;;;12.10;99.90;;;;;;5091443;28;20024;-68
2022/11/16 01:49:33;;;;;;;12.90;8.25;;;12.10;99.90;;;;;;5090342;28;20016;-69
2022/11/16 01:52:03;;;;;;;13.50;8.90;;;12.10;99.90;;;;;;5091952;28;20032;-69
2022/11/16 01:54:31;;;;;;;16.83;10.48;;;12.10;99.90;;;;;;5089853;28;20043;-68
2022/11/16 01:57:01;;;;;;;17.85;10.43;;;12.10;99.90;;;;;;5090609;28;20035;-67
2022/11/16 01:59:28;;;;;;;19.15;11.82;;;12.10;99.90;;;;;;5091790;28;20026;-67
2022/11/16 02:01:53;;;;;;;18.35;10.80;;;12.10;99.90;;;;;;5089713;28;20028;-68
2022/11/16 02:04:19;;;;;;;13.40;9.23;;;12.10;99.90;;;;;;5091696;28;20027;-66
2022/11/16 02:07:05;;;;;;;16.90;10.05;;;12.10;99.90;;;;;;5091913;28;20020;-66
2022/11/16 02:09:52;;;;;;;16.48;9.77;;;12.10;99.90;;;;;;5091348;28;20476;-68
2022/11/16 02:12:36;;;;;;;15.05;9.75;;;12.10;99.90;;;;;;5092668;28;20028;-68
2022/11/16 02:15:20;;;;;;;15.73;10.63;;;12.10;99.90;;;;;;5094907;28;20062;-68
2022/11/16 02:18:00;;;;;;;16.75;10.75;;;12.00;99.90;;;;;;5094142;28;20473;-68
2022/11/16 02:21:04;;;;;;;14.00;9.15;;;12.00;99.90;;;;;;5095351;28;20067;-67
2022/11/16 02:23:49;;;;;;;14.13;8.82;;;12.00;99.90;;;;;;5094729;28;20048;-67
2022/11/16 02:26:37;;;;;;;12.93;8.52;;;12.00;99.90;;;;;;5093903;28;20151;-67
2022/11/16 02:29:27;;;;;;;13.50;8.35;;;11.90;99.90;;;;;;5094636;28;20099;-68
2022/11/16 02:32:02;;;;;;;12.65;8.57;;;11.90;99.90;;;;;;5095153;28;20055;-67
2022/11/16 02:34:49;;;;;;;14.63;9.65;;;11.90;99.90;;;;;;5094913;28;20094;-68
2022/11/16 02:37:19;;;;;;;13.90;9.23;;;11.90;99.90;;;;;;5093158;28;20054;-65
2022/11/16 02:39:47;;;;;;;15.05;9.02;;;11.90;99.90;;;;;;5095379;28;20020;-68
2022/11/16 02:42:23;;;;;;;14.80;9.02;;;11.90;99.90;;;;;;5095074;28;20012;-68
2022/11/16 02:44:51;;;;;;;13.98;9.52;;;12.00;99.90;;;;;;5094494;28;20024;-68
2022/11/16 02:47:25;;;;;;;14.40;8.98;;;12.00;99.90;;;;;;5095050;28;20537;-68
2022/11/16 02:49:56;;;;;;;15.30;9.00;;;12.00;99.90;;;;;;5091558;28;20025;-68
2022/11/16 02:52:24;;;;;;;13.88;9.10;;;12.00;99.90;;;;;;5093751;28;20058;-68
2022/11/16 02:54:49;;;;;;;13.35;8.38;;;12.00;99.90;;;;;;5094781;28;20047;-68
2022/11/16 02:57:46;;;;;;;12.13;7.57;;;12.00;99.90;;;;;;5094353;28;20024;-67
2022/11/16 03:00:32;;;;;;;13.70;8.93;;;12.00;99.90;;;;;;5094971;28;20102;-69
2022/11/16 03:03:27;;;;;;;13.50;7.63;;;11.90;99.90;;;;;;5094886;28;20394;-69
2022/11/16 03:06:01;;;;;;;14.75;7.70;;;11.90;99.90;;;;;;5091818;28;20035;-64
2022/11/16 03:08:33;;;;;;;11.45;7.18;;;11.90;99.90;;;;;;5093065;28;20024;-67
2022/11/16 03:13:56;;;;;;;11.85;7.45;;;11.90;99.90;;;;;;5074098;28;20106;-67
2022/11/16 03:16:26;;;;;;;11.68;8.13;;;11.90;99.90;;;;;;5073979;28;20073;-68
2022/11/16 03:18:54;;;;;;;12.88;8.10;;;11.90;99.90;;;;;;5073379;28;20104;-67
2022/11/16 03:21:40;;;;;;;13.43;8.63;;;11.90;99.90;;;;;;5074104;28;20032;-68
2022/11/16 03:24:07;;;;;;;15.02;8.52;;;11.90;99.90;;;;;;5079012;28;20016;-69
2022/11/16 03:27:06;;;;;;;15.32;8.68;;;11.90;99.90;;;;;;5093214;28;20514;-69
2022/11/16 03:30:01;;;;;;;16.77;9.38;;;11.90;99.90;;;;;;5094274;28;20036;-68
2022/11/16 03:32:52;;;;;;;14.25;9.02;;;11.90;99.90;;;;;;5084429;28;20032;-67
2022/11/16 03:35:23;;;;;;;13.05;8.27;;;11.90;99.90;;;;;;5093144;28;20064;-68
2022/11/16 03:37:51;;;;;;;14.30;8.88;;;11.90;99.90;;;;;;5093204;28;20020;-67
2022/11/16 03:40:19;;;;;;;13.55;8.70;;;11.90;99.90;;;;;;5092575;28;20027;-68
2022/11/16 03:42:48;;;;;;;14.32;10.27;;;11.90;99.90;;;;;;5093157;28;20020;-68
2022/11/16 03:45:15;;;;;;;16.33;9.60;;;11.90;99.90;;;;;;5093472;28;20024;-68
2022/11/16 03:47:41;;;;;;;15.73;10.70;;;11.90;99.90;;;;;;5092650;28;20024;-68
2022/11/16 03:50:08;;;;;;;17.17;10.32;;;12.00;99.90;;;;;;5093029;28;20020;-67
2022/11/16 03:52:34;;;;;;;15.38;9.95;;;12.00;99.90;;;;;;5093170;28;20565;-68
2022/11/16 03:55:00;;;;;;;16.65;10.32;;;12.00;99.90;;;;;;5092474;28;20108;-68
2022/11/16 03:57:26;;;;;;;16.65;11.27;;;12.00;99.90;;;;;;5093411;28;20020;-67
2022/11/16 03:59:51;;;;;;;17.10;10.65;;;12.00;99.90;;;;;;5091771;28;20028;-68
2022/11/16 04:02:17;;;;;;;20.42;11.98;;;12.00;99.90;;;;;;5092249;28;20016;-68
2022/11/16 04:24:16;;;;;;;18.58;10.75;;;12.10;99.90;;;;;;5092725;28;20043;-66
2022/11/16 04:29:36;;;;;;;22.67;14.80;;;12.10;99.90;;;;;;5092265;28;20085;-68
2022/11/16 04:37:48;;;;;;;20.73;12.32;;;12.10;99.90;;;;;;5091687;28;20042;-68
2022/11/16 04:40:19;;;;;;;21.58;12.98;;;12.10;99.90;;;;;;5092595;28;20743;-68
2022/11/16 04:42:52;;;;;;;18.55;10.95;;;12.10;99.90;;;;;;5091540;28;20073;-67
2022/11/16 04:48:04;;;;;;;14.98;9.25;;;12.10;99.90;;;;;;5092407;28;20047;-68
2022/11/16 04:50:30;;;;;;;18.00;10.20;;;12.10;99.90;;;;;;5091993;28;20464;-68
2022/11/16 04:52:55;;;;;;;15.52;9.65;;;12.10;99.90;;;;;;5090740;28;20081;-68
2022/11/16 04:55:21;;;;;;;17.25;9.65;;;12.10;99.90;;;;;;5092265;28;20032;-66
2022/11/16 04:57:46;;;;;;;14.57;9.05;;;12.10;99.90;;;;;;5092012;28;20036;-68
2022/11/16 05:00:12;;;;;;;17.65;10.90;;;12.10;99.90;;;;;;5092115;28;20504;-67
2022/11/16 05:02:38;;;;;;;16.65;10.30;;;12.10;99.90;;;;;;5092473;28;20411;-65
2022/11/16 05:05:04;;;;;;;16.50;10.02;;;12.00;99.90;;;;;;5090647;28;20023;-67
2022/11/16 05:07:30;;;;;;;14.43;8.57;;;12.10;99.90;;;;;;5092597;28;20027;-67
2022/11/16 05:09:55;;;;;;;16.10;10.30;;;12.10;99.90;;;;;;5092290;28;20035;-67
2022/11/16 05:12:24;;;;;;;14.68;9.80;;;12.10;99.90;;;;;;5090314;28;20107;-66
2022/11/16 05:14:50;;;;;;;19.42;11.60;;;12.10;99.90;;;;;;5092517;28;20435;-70
2022/11/16 05:17:16;;;;;;;16.58;10.23;;;12.10;99.90;;;;;;5092387;28;20020;-66
2022/11/16 05:22:26;;;;;;;11.05;6.65;;;12.10;99.90;;;;;;5092470;28;20027;-69
2022/11/16 05:24:52;;;;;;;8.43;5.22;;;12.10;99.90;;;;;;5091953;28;20021;-68
2022/11/16 05:27:20;;;;;;;6.50;3.80;;;12.00;99.90;;;;;;5090815;28;20051;-68
2022/11/16 05:29:48;;;;;;;5.28;3.15;;;12.00;99.90;;;;;;5092437;28;20024;-71
2022/11/16 05:32:14;;;;;;;5.35;2.92;;;11.90;99.90;;;;;;5091760;28;20024;-68
2022/11/16 05:34:39;;;;;;;4.03;2.30;;;11.90;99.90;;;;;;5092458;28;20126;-69
2022/11/16 05:37:05;;;;;;;3.55;2.00;;;11.80;99.90;;;;;;5092394;28;20023;-69
2022/11/16 05:39:31;;;;;;;4.30;2.00;;;11.70;99.90;;;;;;5091921;28;20024;-68
2022/11/16 05:41:56;;;;;;;2.25;1.70;;;11.70;99.90;;;;;;5092334;28;20031;-69
2022/11/16 05:44:22;;;;;;;4.55;2.17;;;11.70;99.90;;;;;;5092031;28;20024;-69
2022/11/16 05:46:48;;;;;;;3.83;1.70;;;11.60;99.90;;;;;;5091822;28;20165;-69
2022/11/16 05:49:14;;;;;;;3.22;1.90;;;11.60;99.90;;;;;;5077657;28;20071;-68
2022/11/16 05:51:42;;;;;;;3.20;1.80;;;11.60;99.90;;;;;;5075008;28;20142;-69
2022/11/16 05:54:10;;;;;;;3.38;2.00;;;11.60;99.90;;;;;;5075003;28;20035;-69
2022/11/16 05:56:36;;;;;;;2.58;1.77;;;11.60;99.90;;;;;;5075950;28;20082;-68
2022/11/16 05:59:01;;;;;;;2.75;1.60;;;11.50;99.90;;;;;;5075867;28;20435;-68
2022/11/16 06:01:27;;;;;;;3.45;1.58;;;11.50;99.90;;;;;;5075431;28;20385;-63
2022/11/16 06:03:53;;;;;;;2.75;1.75;;;11.50;99.90;;;;;;5075481;28;20031;-68
2022/11/16 06:06:19;;;;;;;2.67;1.48;;;11.50;99.90;;;;;;5075578;28;20032;-67
2022/11/16 06:08:45;;;;;;;3.72;1.80;;;11.50;99.90;;;;;;5074898;28;20052;-68
2022/11/16 06:11:11;;;;;;;4.18;1.90;;;11.50;99.90;;;;;;5081296;28;20384;-68
2022/11/16 06:13:37;;;;;;;4.40;2.10;;;11.50;99.90;;;;;;5094186;28;20028;-68
2022/11/16 06:16:04;;;;;;;5.00;2.72;;;11.50;99.90;;;;;;5093234;28;20038;-68
2022/11/16 06:18:30;;;;;;;3.85;2.00;;;11.50;99.90;;;;;;5095088;28;20035;-68
2022/11/16 06:20:56;;;;;;;7.75;2.60;;;11.50;99.90;;;;;;5094643;28;20043;-69
2022/11/16 06:23:22;;;;;;;5.30;2.80;;;11.50;99.90;;;;;;5094700;28;20055;-69
2022/11/16 06:25:53;;;;;;;5.43;3.13;;;11.50;99.90;;;;;;5095733;28;20024;-69
2022/11/16 06:28:19;;;;;;;5.10;3.00;;;11.50;99.90;;;;;;5095145;28;20028;-67
2022/11/16 06:30:46;;;;;;;5.22;3.00;;;11.50;99.90;;;;;;5095609;28;20578;-68
2022/11/16 06:33:11;;;;;;;8.32;4.22;;;11.50;99.90;;;;;;5095380;28;20111;-68
2022/11/16 06:35:37;;;;;;;8.43;5.03;;;11.50;99.90;;;;;;5094838;28;20154;-68
2022/11/16 06:38:03;;;;;;;11.55;6.47;;;11.50;99.90;;;;;;5095494;28;20024;-68
2022/11/16 06:40:28;;;;;;;10.48;6.40;;;11.50;99.90;;;;;;5095381;28;20027;-69
2022/11/16 06:42:56;;;;;;;11.02;6.97;;;11.40;99.90;;;;;;5094655;28;20371;-69
2022/11/16 06:45:22;;;;;;;12.48;7.47;;;11.40;99.90;;;;;;5095337;28;20020;-68
2022/11/16 06:47:47;;;;;;;14.60;7.35;;;11.30;99.90;;;;;;5095386;28;20080;-67
2022/11/16 06:50:13;;;;;;;13.90;7.65;;;11.30;99.90;;;;;;5094703;28;20018;-69
2022/11/16 06:52:38;;;;;;;12.88;7.05;;;11.20;99.90;;;;;;5094795;28;20380;-68
2022/11/16 06:55:05;;;;;;;8.77;5.82;;;11.20;99.90;;;;;;5094966;28;20084;-69
2022/11/16 06:57:34;;;;;;;12.23;7.20;;;11.10;99.90;;;;;;5094090;28;20412;-68
2022/11/16 06:59:59;;;;;;;10.82;6.72;;;11.00;99.90;;;;;;5094756;28;20021;-67
2022/11/16 07:02:25;;;;;;;9.85;6.60;;;11.00;99.90;;;;;;5094755;28;20024;-68
2022/11/16 07:04:50;;;;;;;11.55;6.97;;;10.90;99.90;;;;;;5094380;28;20020;-68
2022/11/16 07:07:16;;;;;;;15.40;7.50;;;10.90;99.90;;;;;;5094878;28;20052;-69
2022/11/16 07:09:43;;;;;;;12.80;7.18;;;10.80;99.90;;;;;;5093155;28;20016;-67
2022/11/16 07:12:09;;;;;;;10.50;6.22;;;10.70;99.90;;;;;;5092660;28;20028;-69
2022/11/16 07:14:34;;;;;;;11.65;6.95;;;10.60;99.90;;;;;;5094665;28;20032;-66
2022/11/16 07:17:00;;;;;;;9.82;6.00;;;10.60;99.90;;;;;;5094782;28;20051;-68
2022/11/16 07:19:25;;;;;;;13.63;6.95;;;10.50;99.90;;;;;;5093840;28;20028;-69
2022/11/16 07:21:51;;;;;;;12.80;6.13;;;10.40;99.90;;;;;;5092369;28;20020;-64
2022/11/16 07:24:16;;;;;;;17.65;7.75;;;10.40;99.90;;;;;;5085973;28;20554;-66
2022/11/16 07:26:42;;;;;;;14.10;7.00;;;10.30;99.90;;;;;;5074753;28;20119;-67
2022/11/16 07:29:07;;;;;;;13.82;7.38;;;10.20;99.90;;;;;;5074048;28;20056;-69
2022/11/16 07:31:33;;;;;;;13.07;7.30;;;10.20;99.90;;;;;;5084597;28;20024;-69
2022/11/16 07:33:59;;;;;;;14.68;6.95;;;10.20;99.90;;;;;;5086778;28;20032;-69
2022/11/16 07:36:24;;;;;;;16.67;6.93;;;10.10;99.90;;;;;;5094370;28;20112;-69
2022/11/16 07:38:50;;;;;;;11.25;5.47;;;10.10;99.90;;;;;;5092695;28;20081;-69
2022/11/16 07:41:19;;;;;;;10.60;5.20;;;10.00;99.90;;;;;;5093056;28;20058;-69
2022/11/16 07:43:45;;;;;;;11.88;5.57;;;10.00;99.90;;;;;;5084618;28;20024;-69
2022/11/16 07:46:13;;;;;;;9.45;5.32;;;10.00;99.90;;;;;;5072202;28;20017;-69
2022/11/16 07:48:41;;;;;;;9.60;4.63;;;10.00;99.90;;;;;;5077320;28;20031;-69
2022/11/16 07:51:09;;;;;;;11.23;5.20;;;9.90;99.90;;;;;;5091879;28;20024;-69
2022/11/16 07:53:35;;;;;;;8.70;5.05;;;9.90;99.90;;;;;;5093336;28;20085;-68
2022/11/16 07:56:01;;;;;;;8.50;4.35;;;9.90;99.90;;;;;;5090746;28;20016;-65
2022/11/16 07:58:29;;;;;;;8.63;4.25;;;10.00;99.90;;;;;;5081625;28;20028;-69
2022/11/16 08:01:03;;;;;;;9.82;4.70;;;10.10;99.90;;;;;;5091883;28;20016;-69
2022/11/16 08:03:30;;;;;;;10.45;4.70;;;10.10;99.90;;;;;;5093392;28;20028;-69
2022/11/16 08:06:05;;;;;;;9.15;4.57;;;10.00;99.90;;;;;;5093778;28;20103;-68
2022/11/16 08:08:31;;;;;;;10.45;4.80;;;10.10;99.90;;;;;;5092787;28;20034;-68
2022/11/16 08:11:01;;;;;;;9.57;4.28;;;10.20;99.90;;;;;;5091243;28;20020;-68
2022/11/16 08:13:30;;;;;;;8.25;4.75;;;10.40;99.90;;;;;;5090898;28;20028;-69
2022/11/16 08:16:00;;;;;;;8.82;4.57;;;10.50;99.90;;;;;;5093430;28;20020;-69
2022/11/16 08:18:26;;;;;;;8.32;4.75;;;10.60;99.90;;;;;;5093769;28;20046;-67
2022/11/16 08:20:52;;;;;;;6.63;4.05;;;10.70;99.90;;;;;;5092721;28;20032;-68
2022/11/16 08:23:17;;;;;;;7.57;3.92;;;10.80;99.90;;;;;;5093371;28;20104;-67
2022/11/16 08:25:43;;;;;;;8.90;4.35;;;10.90;99.90;;;;;;5093580;28;20055;-68
2022/11/16 08:28:09;;;;;;;8.95;3.95;;;10.90;99.90;;;;;;5092406;28;20161;-68
2022/11/16 08:30:37;;;;;;;8.77;4.40;;;10.90;99.90;;;;;;5093294;28;20107;-68
2022/11/16 08:33:02;;;;;;;7.45;4.88;;;10.80;99.90;;;;;;5093017;28;20054;-69
2022/11/16 08:35:28;;;;;;;15.43;7.97;;;10.90;99.90;;;;;;5092671;28;20028;-65
2022/11/16 08:37:53;;;;;;;15.80;7.53;;;10.90;99.90;;;;;;5093071;28;20027;-68
2022/11/16 08:40:19;;;;;;;14.35;6.32;;;10.90;99.90;;;;;;5091824;28;20089;-69
2022/11/16 08:42:45;;;;;;;12.20;6.05;;;10.80;99.90;;;;;;5092150;28;20016;-68
2022/11/16 08:45:10;;;;;;;9.38;5.30;;;10.80;99.90;;;;;;5092739;28;20031;-69
2022/11/16 08:47:36;;;;;;;11.02;5.68;;;10.80;99.90;;;;;;5093139;28;20068;-68
2022/11/16 08:50:01;;;;;;;10.35;5.50;;;10.70;99.90;;;;;;5091106;28;20020;-68
2022/11/16 08:52:27;;;;;;;12.60;5.72;;;10.70;99.90;;;;;;5092533;28;20031;-67
2022/11/16 08:54:52;;;;;;;9.13;5.43;;;10.70;99.90;;;;;;5092276;28;20446;-67
2022/11/16 08:57:18;;;;;;;9.93;5.25;;;10.90;99.90;;;;;;5090594;28;20023;-68
2022/11/16 08:59:43;;;;;;;12.43;5.18;;;11.00;99.90;;;;;;5092519;28;20024;-66
2022/11/16 09:02:09;;;;;;;10.32;5.50;;;11.10;99.90;;;;;;5092956;28;20412;-68
2022/11/16 09:04:35;;;;;;;13.18;5.30;;;11.20;99.90;;;;;;5092260;28;20371;-68
2022/11/16 09:07:00;;;;;;;12.70;5.55;;;11.40;99.90;;;;;;5092742;28;20024;-70
2022/11/16 09:09:26;;;;;;;13.43;5.93;;;11.50;99.90;;;;;;5092688;28;20376;-68
2022/11/16 09:11:54;;;;;;;11.60;5.60;;;11.60;99.90;;;;;;5090791;28;20047;-68
2022/11/16 09:14:20;;;;;;;13.30;5.63;;;11.70;99.90;;;;;;5074506;28;20028;-68
2022/11/16 09:16:46;;;;;;;10.55;5.25;;;11.80;99.90;;;;;;5089920;28;20035;-65
2022/11/16 09:19:12;;;;;;;9.32;4.47;;;11.90;99.90;;;;;;5092659;28;20111;-68
2022/11/16 09:21:37;;;;;;;9.75;5.03;;;11.90;99.90;;;;;;5092396;28;20483;-69
2022/11/16 09:24:03;;;;;;;11.13;4.60;;;12.00;99.90;;;;;;5092100;28;20024;-68
2022/11/16 09:26:29;;;;;;;8.60;4.72;;;12.00;99.90;;;;;;5077704;28;20044;-69
2022/11/16 09:28:57;;;;;;;12.73;4.40;;;12.00;99.90;;;;;;5087132;28;20105;-65
2022/11/16 09:31:26;;;;;;;9.45;4.35;;;12.10;99.90;;;;;;5089425;28;20084;-66
2022/11/16 09:33:53;;;;;;;9.43;4.28;;;12.10;99.90;;;;;;5073732;28;20032;-68
2022/11/16 09:36:20;;;;;;;10.48;4.50;;;12.20;99.90;;;;;;5072647;28;20032;-69
2022/11/16 09:38:46;;;;;;;9.68;4.20;;;12.20;99.90;;;;;;5071823;28;20047;-70
2022/11/16 09:41:14;;;;;;;9.38;4.10;;;12.20;99.90;;;;;;5072310;28;20025;-69
2022/11/16 09:43:58;;;;;;;8.13;4.10;;;12.30;99.90;;;;;;5071930;28;20082;-69
2022/11/16 09:46:48;;;;;;;11.80;3.97;;;12.30;99.90;;;;;;5075418;28;20024;-67
2022/11/16 09:49:24;;;;;;;6.78;3.35;;;12.40;99.90;;;;;;5086229;28;20028;-67
2022/11/16 09:51:54;;;;;;;6.50;3.65;;;12.30;99.90;;;;;;5075655;28;20043;-67
2022/11/16 09:54:23;;;;;;;11.82;4.03;;;12.40;99.90;;;;;;5082371;28;20093;-70
2022/11/16 09:56:53;;;;;;;19.08;7.95;;;12.40;99.90;;;;;;5078532;28;20061;-69
2022/11/16 09:59:23;;;;;;;13.05;6.63;;;12.40;99.90;;;;;;5084388;28;20099;-70
2022/11/16 10:02:02;;;;;;;12.40;4.82;;;12.40;99.90;;;;;;5091975;28;20012;-67
2022/11/16 10:04:48;;;;;;;9.30;3.42;;;12.40;99.90;;;;;;5084576;28;20023;-69
2022/11/16 10:07:14;;;;;;;8.52;3.83;;;12.40;99.90;;;;;;5089742;28;20024;-69
2022/11/16 10:09:40;;;;;;;10.43;3.65;;;12.50;99.90;;;;;;5090968;28;20030;-68
2022/11/16 10:12:24;;;;;;;9.70;3.60;;;12.40;99.90;;;;;;5088597;28;20020;-66
2022/11/16 10:15:00;;;;;;;9.95;3.58;;;12.40;99.90;;;;;;5096203;28;20074;-69
2022/11/16 10:17:44;;;;;;;8.85;4.13;;;12.40;99.90;;;;;;5089047;28;20039;-68
2022/11/16 10:20:30;;;;;;;13.07;4.18;;;12.40;99.90;;;;;;5090741;28;20097;-68
2022/11/16 10:23:10;;;;;;;11.02;3.97;;;12.40;99.90;;;;;;5088625;28;20032;-69
2022/11/16 10:25:44;;;;;;;10.35;3.10;;;12.40;99.90;;;;;;5090114;28;20067;-69
2022/11/16 10:28:22;;;;;;;10.15;3.55;;;12.30;99.90;;;;;;5075456;28;20131;-67
2022/11/16 10:30:58;;;;;;;11.23;3.78;;;12.30;99.90;;;;;;5078791;28;20093;-65
2022/11/16 10:33:26;;;;;;;7.10;3.20;;;12.30;99.90;;;;;;5086935;28;20040;-67
2022/11/16 10:35:52;;;;;;;7.50;3.60;;;12.30;99.90;;;;;;5080832;28;20475;-66
2022/11/16 10:38:29;;;;;;;6.22;3.08;;;12.20;99.90;;;;;;5085697;28;20020;-69
2022/11/16 10:41:00;;;;;;;8.00;3.63;;;12.20;99.90;;;;;;5108723;28;20023;-66
2022/11/16 10:43:30;;;;;;;9.88;3.60;;;12.10;99.90;;;;;;5090956;28;20477;-69
2022/11/16 10:46:01;;;;;;;12.55;3.22;;;12.00;99.90;;;;;;5082255;28;20485;-69
2022/11/16 10:48:38;;;;;;;10.75;3.40;;;12.00;99.90;;;;;;5073059;28;20036;-65
2022/11/16 10:51:06;;;;;;;10.82;3.47;;;12.00;99.90;;;;;;5078549;28;20027;-67
2022/11/16 10:53:36;;;;;;;8.38;3.42;;;12.00;99.90;;;;;;5097983;28;20046;-67
2022/11/16 10:56:19;;;;;;;12.15;3.97;;;12.00;99.90;;;;;;5091706;28;20420;-68
2022/11/16 10:58:48;;;;;;;9.48;3.65;;;12.10;99.90;;;;;;5084469;28;20058;-67
2022/11/16 11:01:26;;;;;;;8.27;4.10;;;12.20;99.90;;;;;;5093255;28;20040;-67
2022/11/16 11:03:51;;;;;;;10.40;4.03;;;12.30;99.90;;;;;;5091551;28;20117;-67
2022/11/16 11:06:17;;;;;;;10.15;3.50;;;12.40;99.90;;;;;;5079508;28;20067;-66
2022/11/16 11:08:43;;;;;;;14.32;3.90;;;12.50;99.90;;;;;;5092214;28;20051;-65
2022/11/16 11:14:15;;;;;;;10.95;3.10;;;12.70;99.90;;;;;;5082944;28;20430;-66
2022/11/16 11:16:41;;;;;;;8.68;3.38;;;12.70;99.90;;;;;;5077014;28;20044;-67
2022/11/16 11:19:33;;;;;;;5.78;2.70;;;12.70;99.90;;;;;;5073664;28;20393;-70
2022/11/16 11:21:59;;;;;;;7.68;3.30;;;12.60;99.90;;;;;;5087371;28;20044;-71
2022/11/16 11:24:27;;;;;;;8.38;3.05;;;12.50;99.90;;;;;;5107498;27;20031;-66
2022/11/16 11:26:56;;;;;;;9.45;2.83;;;12.50;99.90;;;;;;5075950;28;20193;-66
2022/11/16 11:29:35;;;;;;;7.05;2.92;;;12.40;99.90;;;;;;5092700;28;20123;-68
2022/11/16 11:32:13;;;;;;;3.85;2.13;;;12.30;99.90;;;;;;5092177;28;20020;-65
2022/11/16 11:34:42;;;;;;;7.45;2.97;;;12.30;99.90;;;;;;5092124;28;20036;-67
2022/11/16 11:37:22;;;;;;;3.90;2.38;;;12.40;99.90;;;;;;5093045;28;20492;-67
2022/11/16 11:39:47;;;;;;;8.73;2.30;;;12.40;99.90;;;;;;5091336;28;20184;-65
2022/11/16 11:42:13;;;;;;;11.73;3.15;;;12.40;99.90;;;;;;5073430;28;20028;-64
2022/11/16 11:44:55;;;;;;;6.60;2.53;;;12.30;99.90;;;;;;5072099;28;20343;-68
2022/11/16 11:47:39;;;;;;;10.68;2.75;;;12.30;99.90;;;;;;5073486;28;20469;-68
2022/11/16 11:50:15;;;;;;;5.07;2.30;;;12.20;99.90;;;;;;5075221;28;20035;-69
2022/11/16 11:53:06;;;;;;;8.32;2.28;;;12.20;99.90;;;;;;5092443;28;20483;-67
2022/11/16 11:55:33;;;;;;;8.38;2.67;;;12.30;99.90;;;;;;5084197;28;20072;-67
2022/11/16 11:58:00;;;;;;;9.60;3.50;;;12.20;99.90;;;;;;5072883;28;20055;-67
2022/11/16 12:00:26;;;;;;;11.93;3.55;;;12.20;99.90;;;;;;5072028;28;20528;-72
2022/11/16 12:03:25;;;;;;;9.68;3.58;;;12.20;99.90;;;;;;5072810;28;20146;-67
2022/11/16 12:06:36;;;;;;;8.60;3.05;;;12.30;99.90;;;;;;5072852;28;20024;-69
2022/11/16 12:09:02;;;;;;;;;;;12.30;99.90;;;;;;5072154;28;20107;-67
2022/11/16 12:11:30;;;;;;;9.75;2.90;;;12.30;99.90;;;;;;5072706;28;19999;-68
2022/11/16 12:14:12;;;;;;;6.15;2.13;;;12.20;99.90;;;;;;5071165;28;20068;-68
2022/11/16 12:16:50;;;;;;;7.07;2.17;;;12.20;99.90;;;;;;5081216;28;20069;-67
2022/11/16 12:19:27;;;;;;;9.02;2.50;;;12.20;99.90;;;;;;5091303;28;20020;-68
2022/11/16 12:22:15;;;;;;;7.00;2.63;;;12.20;99.90;;;;;;5090938;28;20479;-68
2022/11/16 12:24:47;;;;;;;5.53;2.10;;;12.30;99.90;;;;;;5072090;28;20032;-68
2022/11/16 12:27:27;;;;;;;3.05;1.70;;;12.40;99.90;;;;;;5084419;28;20135;-68
2022/11/16 12:30:15;;;;;;;7.53;1.70;;;12.50;99.90;;;;;;5092258;28;20032;-67
2022/11/16 12:33:10;;;;;;;3.47;1.60;;;12.50;99.90;;;;;;5078836;28;20512;-77
2022/11/16 12:35:58;;;;;;;6.90;2.50;;;12.40;99.90;;;;;;5091608;28;20039;-67
2022/11/16 12:38:35;;;;;;;5.25;2.13;;;12.30;99.90;;;;;;5070845;28;20392;-67
2022/11/16 12:41:15;;;;;;;6.65;2.25;;;12.20;99.90;;;;;;5076371;28;20033;-68
2022/11/16 12:43:56;;;;;;;9.43;2.75;;;12.10;99.90;;;;;;5070995;28;20396;-66
2022/11/16 12:46:21;;;;;;;6.95;1.98;;;12.20;99.90;;;;;;5071285;28;20040;-68
2022/11/16 12:49:20;;;;;;;5.78;1.75;;;12.30;99.90;;;;;;5072003;28;20454;-65
2022/11/16 12:52:23;;;;;;;3.75;1.95;;;12.50;99.90;;;;;;5087991;28;20051;-68
2022/11/16 12:55:14;;;;;;;5.03;1.77;;;12.60;99.90;;;;;;5091037;28;20148;-67
2022/11/16 12:58:00;;;;;;;5.55;1.92;;;12.70;99.90;;;;;;5091837;28;20020;-68
2022/11/16 13:00:29;;;;;;;7.15;2.33;;;12.80;99.90;;;;;;5090454;28;20442;-68
2022/11/16 13:03:12;;;;;;;5.60;1.90;;;12.80;99.90;;;;;;5089960;28;20362;-68
2022/11/16 13:06:01;;;;;;;10.05;2.30;;;12.90;99.90;;;;;;5090774;28;20024;-64
2022/11/16 13:08:29;;;;;;;6.28;2.50;;;13.00;99.90;;;;;;5088859;28;20024;-68
2022/11/16 13:11:19;;;;;;;6.20;1.90;;;13.10;99.90;;;;;;5092053;28;20063;-66
2022/11/16 13:13:48;;;;;;;6.55;1.50;;;13.10;99.90;;;;;;5088645;28;20032;-69
2022/11/16 13:16:16;;;;;;;8.05;2.53;;;13.20;99.90;;;;;;5091374;28;20031;-69
2022/11/16 13:18:43;;;;;;;7.55;2.03;;;13.10;99.90;;;;;;5089904;28;20024;-68
2022/11/16 13:21:11;;;;;;;5.07;1.30;;;12.90;99.90;;;;;;5078804;28;20020;-70
2022/11/16 13:23:58;;;;;;;3.28;1.30;;;12.80;99.90;;;;;;5086720;28;20469;-71
2022/11/16 13:26:35;;;;;;;4.28;1.30;;;12.60;99.90;;;;;;5091032;28;20028;-71
2022/11/16 13:29:29;;;;;;;3.85;1.35;;;12.60;99.90;;;;;;5092474;28;20032;-71
2022/11/16 13:32:09;;;;;;;5.13;1.70;;;12.60;99.90;;;;;;5074978;28;20032;-72
2022/11/16 13:34:37;;;;;;;4.50;1.73;;;12.60;99.90;;;;;;5076477;28;20060;-70
2022/11/16 13:37:38;;;;;;;6.25;1.77;;;12.50;99.90;;;;;;5102529;28;20012;-69
2022/11/16 13:40:03;;;;;;;6.53;1.58;;;12.50;99.90;;;;;;5093832;28;20493;-69
2022/11/16 13:42:57;;;;;;;5.35;1.40;;;12.40;99.90;;;;;;5090771;28;20085;-68